createdAt,value
2019-04-01T00:01:54.871Z,146.15
2019-04-01T00:04:21.976Z,145.60
2019-04-01T00:06:49.050Z,143.82
2019-04-01T00:09:16.504Z,143.40
2019-04-01T00:11:43.643Z,144.62
2019-04-01T00:14:10.721Z,144.82
2019-04-01T00:16:38.638Z,145.65
2019-04-01T00:19:05.820Z,146.13
2019-04-01T00:21:33.053Z,146.62
2019-04-01T00:24:00.501Z,146.32
2019-04-01T00:26:27.611Z,146.37
2019-04-01T00:28:54.803Z,144.45
2019-04-01T00:31:22.326Z,144.70
2019-04-01T00:33:49.400Z,142.75
2019-04-01T00:36:16.418Z,146.43
2019-04-01T00:38:43.937Z,146.68
2019-04-01T00:41:15.408Z,145.15
2019-04-01T00:43:56.536Z,145.87
2019-04-01T00:46:24.096Z,147.35
2019-04-01T00:48:52.215Z,145.75
2019-04-01T00:51:19.285Z,147.80
2019-04-01T00:53:47.531Z,147.37
2019-04-01T00:56:14.560Z,146.07
2019-04-01T00:58:44.158Z,145.97
2019-04-01T01:01:11.218Z,146.82
2019-04-01T01:03:38.250Z,143.95
2019-04-01T01:06:05.801Z,146.53
2019-04-01T01:08:32.866Z,148.05
2019-04-01T01:10:59.892Z,146.50
2019-04-01T01:13:26.991Z,146.43
2019-04-01T01:15:54.014Z,145.82
2019-04-01T01:18:21.068Z,146.85
2019-04-01T01:20:48.158Z,145.02
2019-04-01T01:23:15.174Z,145.22
2019-04-01T01:25:42.597Z,147.13
2019-04-01T01:28:09.719Z,143.97
2019-04-01T01:30:36.843Z,145.68
2019-04-01T01:33:04.288Z,146.02
2019-04-01T01:35:32.565Z,144.32
2019-04-01T01:37:59.600Z,144.20
2019-04-01T01:40:26.659Z,145.80
2019-04-01T01:42:53.730Z,144.85
2019-04-01T01:45:20.766Z,145.68
2019-04-01T01:47:47.791Z,145.87
2019-04-01T01:50:14.874Z,145.53
2019-04-01T01:52:42.315Z,145.07
2019-04-01T01:55:09.387Z,146.00
2019-04-01T01:57:36.481Z,147.05
2019-04-01T02:00:04.444Z,145.38
2019-04-01T02:02:32.705Z,147.78
2019-04-01T02:04:59.768Z,145.05
2019-04-01T02:07:26.814Z,145.95
2019-04-01T02:09:53.855Z,146.43
2019-04-01T02:12:20.885Z,146.32
2019-04-01T02:14:48.405Z,146.13
2019-04-01T02:17:15.473Z,145.20
2019-04-01T02:19:42.551Z,145.68
2019-04-01T02:22:09.609Z,146.47
2019-04-01T02:24:36.677Z,146.22
2019-04-01T02:27:03.727Z,143.72
2019-04-01T02:29:31.117Z,144.37
2019-04-01T02:31:58.267Z,146.15
2019-04-01T02:34:25.328Z,145.45
2019-04-01T02:36:53.496Z,143.93
2019-04-01T02:39:21.732Z,143.60
2019-04-01T02:41:48.793Z,142.35
2019-04-01T02:44:16.207Z,144.93
2019-04-01T02:46:43.270Z,142.95
2019-04-01T02:49:10.309Z,144.87
2019-04-01T02:51:37.382Z,143.97
2019-04-01T02:54:04.403Z,142.80
2019-04-01T02:56:31.522Z,140.77
2019-04-01T02:58:58.536Z,142.25
2019-04-01T03:01:26.036Z,144.62
2019-04-01T03:03:53.493Z,141.73
2019-04-01T03:06:20.502Z,140.97
2019-04-01T03:08:48.950Z,141.18
2019-04-01T03:11:16.442Z,140.75
2019-04-01T03:13:43.488Z,142.18
2019-04-01T03:16:10.567Z,141.00
2019-04-01T03:18:37.588Z,141.80
2019-04-01T03:21:04.665Z,139.30
2019-04-01T03:23:33.262Z,142.45
2019-04-01T03:26:00.373Z,138.32
2019-04-01T03:28:27.482Z,141.47
2019-04-01T03:30:55.233Z,140.68
2019-04-01T03:33:22.329Z,141.57
2019-04-01T03:35:49.395Z,140.88
2019-04-01T03:38:16.825Z,140.92
2019-04-01T03:40:43.959Z,139.57
2019-04-01T03:43:10.994Z,140.85
2019-04-01T03:45:38.691Z,141.88
2019-04-01T03:48:05.749Z,141.53
2019-04-01T03:50:32.771Z,139.75
2019-04-01T03:52:59.831Z,139.20
2019-04-01T03:55:26.887Z,139.35
2019-04-01T03:57:53.991Z,138.92
2019-04-01T04:00:21.647Z,139.90
2019-04-01T04:02:48.758Z,139.32
2019-04-01T04:05:15.970Z,139.55
2019-04-01T04:07:42.975Z,137.30
2019-04-01T04:10:10.343Z,140.00
2019-04-01T04:12:37.332Z,141.20
2019-04-01T04:15:06.497Z,139.60
2019-04-01T04:17:35.045Z,139.85
2019-04-01T04:20:02.301Z,140.47
2019-04-01T04:22:29.329Z,138.05
2019-04-01T04:24:56.711Z,139.28
2019-04-01T04:27:23.744Z,139.75
2019-04-01T04:29:51.099Z,138.52
2019-04-01T04:32:18.166Z,138.47
2019-04-01T04:34:45.194Z,137.77
2019-04-01T04:37:12.593Z,137.57
2019-04-01T04:39:39.923Z,139.12
2019-04-01T04:42:06.949Z,139.03
2019-04-01T04:44:33.987Z,138.52
2019-04-01T04:47:04.453Z,137.88
2019-04-01T04:49:31.495Z,139.28
2019-04-01T04:51:58.551Z,137.32
2019-04-01T04:54:26.138Z,137.62
2019-04-01T04:56:53.160Z,138.52
2019-04-01T04:59:20.207Z,140.62
2019-04-01T05:01:47.290Z,137.52
2019-04-01T05:04:14.491Z,140.73
2019-04-01T05:06:41.709Z,139.65
2019-04-01T05:09:09.234Z,138.40
2019-04-01T05:11:36.740Z,139.95
2019-04-01T05:14:03.826Z,138.77
2019-04-01T05:16:31.260Z,139.05
2019-04-01T05:18:58.315Z,137.57
2019-04-01T05:21:27.503Z,140.60
2019-04-01T05:23:55.404Z,139.32
2019-04-01T05:26:23.894Z,137.72
2019-04-01T05:28:52.819Z,138.80
2019-04-01T05:31:22.837Z,135.97
2019-04-01T05:33:55.636Z,137.57
2019-04-01T05:36:24.048Z,137.55
2019-04-01T05:38:51.761Z,138.28
2019-04-01T05:41:20.294Z,136.88
2019-04-01T05:43:49.698Z,136.57
2019-04-01T05:46:16.962Z,137.40
2019-04-01T05:48:44.012Z,138.30
2019-04-01T05:51:11.749Z,137.62
2019-04-01T05:53:38.838Z,138.60
2019-04-01T05:56:06.901Z,137.62
2019-04-01T05:58:34.540Z,136.25
2019-04-01T06:01:11.740Z,136.62
2019-04-01T06:03:39.162Z,138.03
2019-04-01T06:06:07.191Z,140.60
2019-04-01T06:08:34.683Z,138.57
2019-04-01T06:11:01.808Z,138.35
2019-04-01T06:13:28.852Z,138.03
2019-04-01T06:15:56.768Z,137.80
2019-04-01T06:18:23.953Z,139.90
2019-04-01T06:20:51.321Z,140.43
2019-04-01T06:23:18.386Z,139.57
2019-04-01T06:25:45.858Z,140.97
2019-04-01T06:28:13.067Z,139.43
2019-04-01T06:30:40.639Z,140.47
2019-04-01T06:33:08.687Z,138.82
2019-04-01T06:35:35.792Z,138.10
2019-04-01T06:38:02.937Z,141.97
2019-04-01T06:40:30.068Z,138.60
2019-04-01T06:42:57.451Z,140.10
2019-04-01T06:45:24.660Z,139.90
2019-04-01T06:47:51.870Z,139.47
2019-04-01T06:50:18.896Z,158.20
2019-04-01T06:52:45.987Z,138.75
2019-04-01T06:55:13.264Z,138.85
2019-04-01T06:57:40.921Z,139.82
2019-04-01T07:00:08.249Z,138.68
2019-04-01T07:02:35.443Z,141.32
2019-04-01T07:05:03.622Z,136.90
2019-04-01T07:07:31.759Z,138.10
2019-04-01T07:09:58.849Z,140.22
2019-04-01T07:12:25.940Z,140.10
2019-04-01T07:14:53.339Z,138.92
2019-04-01T07:17:20.836Z,139.43
2019-04-01T07:19:50.410Z,140.62
2019-04-01T07:22:19.338Z,141.40
2019-04-01T07:24:46.454Z,139.75
2019-04-01T07:27:13.469Z,140.40
2019-04-01T07:29:40.485Z,141.30
2019-04-01T07:32:07.566Z,138.18
2019-04-01T07:34:34.649Z,139.92
2019-04-01T07:37:02.359Z,141.15
2019-04-01T07:39:29.448Z,141.88
2019-04-01T07:41:56.543Z,139.12
2019-04-01T07:44:23.662Z,140.95
2019-04-01T07:46:50.808Z,143.00
2019-04-01T07:49:17.846Z,140.82
2019-04-01T07:51:48.626Z,139.60
2019-04-01T07:54:18.510Z,140.50
2019-04-01T07:56:44.803Z,141.62
2019-04-01T07:59:12.685Z,142.77
2019-04-01T08:01:41.568Z,142.20
2019-04-01T08:04:08.728Z,142.37
2019-04-01T08:06:35.765Z,141.60
2019-04-01T08:09:05.108Z,142.07
2019-04-01T08:11:32.536Z,142.07
2019-04-01T08:14:00.168Z,141.18
2019-04-01T08:16:27.402Z,141.92
2019-04-01T08:18:54.545Z,142.55
2019-04-01T08:21:21.677Z,143.47
2019-04-01T08:23:48.743Z,145.65
2019-04-01T08:26:16.187Z,144.60
2019-04-01T08:28:43.320Z,145.55
2019-04-01T08:31:13.309Z,144.80
2019-04-01T08:33:41.922Z,144.82
2019-04-01T08:36:09.300Z,145.10
2019-04-01T08:38:36.761Z,145.00
2019-04-01T08:41:04.532Z,145.02
2019-04-01T08:43:31.588Z,146.25
2019-04-01T08:45:59.083Z,147.10
2019-04-01T08:48:26.812Z,144.35
2019-04-01T08:50:53.889Z,144.85
2019-04-01T08:53:20.992Z,145.72
2019-04-01T08:55:48.467Z,147.25
2019-04-01T08:58:15.609Z,145.92
2019-04-01T09:00:42.897Z,145.30
2019-04-01T09:03:10.082Z,145.97
2019-04-01T09:05:37.760Z,146.32
2019-04-01T09:08:04.916Z,145.15
2019-04-01T09:10:35.842Z,146.32
2019-04-01T09:13:02.869Z,147.07
2019-04-01T09:15:31.954Z,147.25
2019-04-01T09:17:59.007Z,148.68
2019-04-01T09:20:26.100Z,147.65
2019-04-01T09:22:54.327Z,147.90
2019-04-01T09:25:21.793Z,146.50
2019-04-01T09:27:48.941Z,147.53
2019-04-01T09:30:18.718Z,147.85
2019-04-01T09:32:45.749Z,149.38
2019-04-01T09:35:13.073Z,149.12
2019-04-01T09:37:40.188Z,147.60
2019-04-01T09:40:07.986Z,145.30
2019-04-01T09:42:35.186Z,147.07
2019-04-01T09:45:02.521Z,148.02
2019-04-01T09:47:31.142Z,147.80
2019-04-01T09:49:58.228Z,147.37
2019-04-01T09:52:25.378Z,146.82
2019-04-01T09:54:52.412Z,148.53
2019-04-01T09:57:19.434Z,145.97
2019-04-01T09:59:46.617Z,149.07
2019-04-01T10:02:13.942Z,149.05
2019-04-01T10:04:41.085Z,147.95
2019-04-01T10:07:08.192Z,147.95
2019-04-01T10:09:35.574Z,148.47
2019-04-01T10:12:02.826Z,149.85
2019-04-01T10:14:29.945Z,149.85
2019-04-01T10:16:57.594Z,150.40
2019-04-01T10:19:24.732Z,148.25
2019-04-01T10:21:52.326Z,148.90
2019-04-01T10:24:20.237Z,148.80
2019-04-01T10:26:48.630Z,150.62
2019-04-01T10:29:16.039Z,150.12
2019-04-01T10:31:43.086Z,150.85
2019-04-01T10:34:10.796Z,150.55
2019-04-01T10:36:37.968Z,150.78
2019-04-01T10:39:06.521Z,151.02
2019-04-01T10:41:34.056Z,151.90
2019-04-01T10:44:04.623Z,150.78
2019-04-01T10:46:30.170Z,150.42
2019-04-01T10:48:58.960Z,155.15
2019-04-01T10:51:26.159Z,152.22
2019-04-01T10:53:53.467Z,152.22
2019-04-01T10:56:21.106Z,150.87
2019-04-01T10:58:48.230Z,152.30
2019-04-01T11:01:15.235Z,152.80
2019-04-01T11:03:42.651Z,152.80
2019-04-01T11:06:09.761Z,152.90
2019-04-01T11:08:36.772Z,152.02
2019-04-01T11:11:04.510Z,153.70
2019-04-01T11:13:32.130Z,153.10
2019-04-01T11:15:59.379Z,153.05
2019-04-01T11:18:26.589Z,153.23
2019-04-01T11:20:56.704Z,154.70
2019-04-01T11:23:23.020Z,153.60
2019-04-01T11:25:50.085Z,156.52
2019-04-01T11:28:17.330Z,156.30
2019-04-01T11:30:44.367Z,155.72
2019-04-01T11:33:11.549Z,155.78
2019-04-01T11:35:38.716Z,156.85
2019-04-01T11:38:05.750Z,156.18
2019-04-01T11:40:33.305Z,156.87
2019-04-01T11:43:00.950Z,156.20
2019-04-01T11:45:29.625Z,158.50
2019-04-01T11:47:57.308Z,157.88
2019-04-01T11:50:25.314Z,157.37
2019-04-01T11:52:53.046Z,157.00
2019-04-01T11:55:20.115Z,155.78
2019-04-01T11:57:47.397Z,156.72
2019-04-01T12:00:17.276Z,156.60
2019-04-01T12:02:46.158Z,155.40
2019-04-01T12:05:15.218Z,155.15
2019-04-01T12:07:42.340Z,156.67
2019-04-01T12:10:09.797Z,157.15
2019-04-01T12:12:36.918Z,157.72
2019-04-01T12:15:05.002Z,155.75
2019-04-01T12:17:32.661Z,155.82
2019-04-01T12:19:59.777Z,157.57
2019-04-01T12:22:26.804Z,157.10
2019-04-01T12:24:54.427Z,158.18
2019-04-01T12:27:21.755Z,156.70
2019-04-01T12:29:50.373Z,156.78
2019-04-01T12:32:17.485Z,157.70
2019-04-01T12:34:44.570Z,157.12
2019-04-01T12:37:12.919Z,159.85
2019-04-01T12:39:41.226Z,161.30
2019-04-01T12:42:08.676Z,156.67
2019-04-01T12:44:35.743Z,160.55
2019-04-01T12:47:03.865Z,158.78
2019-04-01T12:49:31.143Z,160.88
2019-04-01T12:52:05.859Z,158.12
2019-04-01T12:54:39.250Z,154.53
2019-04-01T12:57:07.355Z,157.15
2019-04-01T12:59:34.703Z,157.62
2019-04-01T13:02:01.792Z,155.63
2019-04-01T13:04:28.932Z,157.62
2019-04-01T13:06:57.138Z,157.32
2019-04-01T13:09:24.662Z,158.78
2019-04-01T13:11:51.736Z,158.68
2019-04-01T13:14:18.762Z,159.90
2019-04-01T13:16:45.901Z,157.88
2019-04-01T13:19:12.959Z,157.80
2019-04-01T13:21:40.569Z,157.65
2019-04-01T13:24:07.673Z,159.43
2019-04-01T13:26:34.706Z,157.18
2019-04-01T13:29:01.780Z,159.67
2019-04-01T13:31:29.823Z,160.43
2019-04-01T13:33:56.982Z,156.78
2019-04-01T13:36:24.082Z,161.60
2019-04-01T13:38:51.457Z,158.65
2019-04-01T13:41:18.522Z,160.03
2019-04-01T13:43:50.052Z,157.57
2019-04-01T13:46:17.179Z,157.70
2019-04-01T13:48:56.865Z,158.87
2019-04-01T13:51:17.088Z,158.68
2019-04-01T13:53:44.570Z,157.25
2019-04-01T13:56:13.458Z,158.80
2019-04-01T13:58:46.058Z,157.35
2019-04-01T14:01:13.557Z,157.75
2019-04-01T14:03:45.040Z,156.93
2019-04-01T14:06:39.912Z,161.57
2019-04-01T14:12:51.351Z,157.07
2019-04-01T14:15:18.679Z,158.00
2019-04-01T14:17:46.139Z,158.97
2019-04-01T14:20:16.250Z,156.95
2019-04-01T14:22:53.693Z,160.15
2019-04-01T14:25:36.661Z,157.95
2019-04-01T14:28:10.135Z,157.47
2019-04-01T14:30:39.700Z,157.07
2019-04-01T14:33:07.579Z,156.78
2019-04-01T14:35:35.633Z,156.63
2019-04-01T14:38:04.081Z,156.97
2019-04-01T14:40:35.562Z,161.55
2019-04-01T14:43:02.648Z,161.22
2019-04-01T14:45:34.658Z,159.67
2019-04-01T14:48:02.634Z,158.10
2019-04-01T14:50:30.257Z,159.30
2019-04-01T14:52:58.039Z,156.90
2019-04-01T14:55:25.310Z,159.75
2019-04-01T14:57:52.415Z,159.25
2019-04-01T15:00:20.479Z,156.15
2019-04-01T15:02:47.666Z,155.93
2019-04-01T15:05:15.245Z,155.52
2019-04-01T15:07:42.290Z,155.57
2019-04-01T15:10:11.175Z,157.40
2019-04-01T15:12:38.737Z,156.05
2019-04-01T15:15:10.714Z,159.85
2019-04-01T15:17:37.905Z,157.22
2019-04-01T15:20:06.776Z,155.32
2019-04-01T15:22:33.834Z,155.72
2019-04-01T15:25:00.923Z,157.15
2019-04-01T15:27:29.406Z,156.28
2019-04-01T15:29:57.393Z,156.10
2019-04-01T15:32:26.631Z,155.78
2019-04-01T15:34:53.715Z,156.25
2019-04-01T15:37:20.786Z,159.72
2019-04-01T15:39:49.695Z,154.68
2019-04-01T15:42:17.610Z,155.75
2019-04-01T15:44:44.728Z,154.60
2019-04-01T15:47:11.846Z,156.28
2019-04-01T15:49:40.087Z,154.78
2019-04-01T15:52:07.358Z,155.93
2019-04-01T15:54:34.514Z,156.43
2019-04-01T15:57:01.908Z,157.30
2019-04-01T15:59:30.048Z,155.30
2019-04-01T16:01:59.101Z,154.27
2019-04-01T16:04:27.423Z,157.62
2019-04-01T16:06:56.060Z,157.45
2019-04-01T16:09:24.385Z,155.10
2019-04-01T16:11:54.137Z,155.75
2019-04-01T16:14:21.778Z,157.62
2019-04-01T16:16:48.940Z,155.27
2019-04-01T16:19:16.077Z,155.82
2019-04-01T16:21:43.155Z,154.10
2019-04-01T16:24:11.167Z,154.82
2019-04-01T16:26:38.551Z,152.82
2019-04-01T16:29:05.728Z,155.12
2019-04-01T16:31:34.626Z,156.82
2019-04-01T16:34:02.212Z,153.97
2019-04-01T16:36:29.641Z,153.07
2019-04-01T16:38:56.854Z,153.30
2019-04-01T16:41:23.987Z,154.47
2019-04-01T16:43:51.155Z,154.75
2019-04-01T16:46:18.551Z,153.25
2019-04-01T16:48:48.169Z,154.85
2019-04-01T16:51:15.220Z,153.72
2019-04-01T16:53:44.353Z,153.20
2019-04-01T16:56:11.645Z,152.25
2019-04-01T16:58:38.762Z,152.12
2019-04-01T17:01:06.176Z,153.02
2019-04-01T17:03:33.652Z,154.30
2019-04-01T17:06:07.122Z,152.82
2019-04-01T17:08:34.831Z,155.25
2019-04-01T17:11:02.639Z,153.38
2019-04-01T17:13:29.905Z,154.95
2019-04-01T17:15:56.962Z,152.02
2019-04-01T17:18:24.600Z,151.65
2019-04-01T17:20:53.156Z,152.05
2019-04-01T17:23:20.543Z,154.50
2019-04-01T17:25:47.831Z,152.20
2019-04-01T17:28:16.272Z,153.87
2019-04-01T17:30:43.693Z,152.75
2019-04-01T17:33:11.261Z,153.35
2019-04-01T17:35:38.641Z,152.75
2019-04-01T17:38:07.291Z,152.12
2019-04-01T17:40:34.538Z,150.78
2019-04-01T17:43:01.851Z,151.50
2019-04-01T17:45:37.282Z,149.47
2019-04-01T17:48:05.591Z,152.78
2019-04-01T17:50:34.878Z,150.20
2019-04-01T17:53:03.760Z,151.65
2019-04-01T17:55:30.870Z,151.18
2019-04-01T17:57:58.121Z,150.15
2019-04-01T18:00:27.307Z,150.45
2019-04-01T18:02:54.705Z,151.82
2019-04-01T18:05:21.972Z,150.65
2019-04-01T18:07:50.643Z,149.27
2019-04-01T18:10:18.244Z,151.22
2019-04-01T18:12:45.602Z,152.53
2019-04-01T18:15:13.255Z,149.87
2019-04-01T18:17:41.290Z,150.00
2019-04-01T18:20:09.177Z,149.72
2019-04-01T18:22:37.942Z,148.28
2019-04-01T18:25:05.440Z,152.85
2019-04-01T18:27:32.597Z,151.42
2019-04-01T18:29:59.842Z,148.90
2019-04-01T18:32:27.072Z,151.15
2019-04-01T18:34:54.133Z,152.30
2019-04-01T18:37:21.542Z,151.35
2019-04-01T18:39:50.838Z,151.25
2019-04-01T18:42:18.444Z,146.32
2019-04-01T18:44:46.635Z,148.95
2019-04-01T18:47:13.674Z,148.47
2019-04-01T18:49:45.906Z,148.87
2019-04-01T18:52:13.473Z,149.57
2019-04-01T18:54:42.196Z,149.60
2019-04-01T18:57:12.307Z,152.65
2019-04-01T18:59:39.621Z,148.38
2019-04-01T19:02:07.377Z,147.00
2019-04-01T19:04:34.490Z,148.87
2019-04-01T19:07:01.802Z,148.30
2019-04-01T19:09:28.837Z,148.70
2019-04-01T19:12:03.838Z,148.30
2019-04-01T19:14:25.039Z,146.77
2019-04-01T19:16:53.432Z,146.72
2019-04-01T19:19:20.497Z,147.40
2019-04-01T19:21:47.688Z,148.78
2019-04-01T19:24:16.628Z,146.00
2019-04-01T19:26:44.964Z,146.95
2019-04-01T19:29:12.637Z,146.32
2019-04-01T19:31:41.288Z,146.55
2019-04-01T19:34:08.882Z,145.25
2019-04-01T19:36:37.817Z,145.20
2019-04-01T19:39:09.348Z,145.65
2019-04-01T19:41:39.679Z,145.53
2019-04-01T19:44:06.994Z,145.62
2019-04-01T19:46:34.593Z,145.80
2019-04-01T19:49:04.968Z,146.82
2019-04-01T19:51:30.866Z,147.30
2019-04-01T19:53:58.534Z,145.85
2019-04-01T19:56:28.576Z,146.65
2019-04-01T19:58:55.673Z,147.20
2019-04-01T20:01:25.003Z,147.02
2019-04-01T20:03:52.147Z,145.55
2019-04-01T20:06:19.284Z,148.80
2019-04-01T20:08:49.604Z,145.53
2019-04-01T20:11:15.751Z,146.93
2019-04-01T20:13:43.375Z,146.55
2019-04-01T20:16:12.714Z,145.25
2019-04-01T20:18:42.447Z,146.07
2019-04-01T20:21:09.799Z,145.92
2019-04-01T20:23:37.014Z,146.57
2019-04-01T20:26:04.119Z,144.77
2019-04-01T20:28:31.625Z,146.62
2019-04-01T20:31:00.676Z,146.20
2019-04-01T20:33:27.754Z,146.02
2019-04-01T20:35:54.827Z,147.35
2019-04-01T20:38:22.025Z,145.85
2019-04-01T20:40:50.555Z,147.62
2019-04-01T20:43:19.070Z,146.10
2019-04-01T20:45:46.137Z,146.37
2019-04-01T20:48:13.269Z,147.17
2019-04-01T20:50:42.131Z,145.92
2019-04-01T20:53:09.557Z,144.87
2019-04-01T20:55:47.585Z,144.72
2019-04-01T20:58:05.985Z,145.68
2019-04-01T21:00:34.155Z,145.28
2019-04-01T21:03:01.693Z,145.75
2019-04-01T21:05:28.929Z,144.22
2019-04-01T21:07:56.292Z,144.35
2019-04-01T21:10:23.382Z,144.00
2019-04-01T21:12:50.631Z,143.68
2019-04-01T21:15:18.382Z,143.43
2019-04-01T21:17:47.332Z,143.37
2019-04-01T21:20:14.673Z,144.55
2019-04-01T21:22:41.748Z,144.70
2019-04-01T21:25:09.371Z,144.30
2019-04-01T21:27:36.811Z,142.72
2019-04-01T21:30:06.116Z,145.22
2019-04-01T21:32:34.529Z,144.68
2019-04-01T21:35:01.625Z,143.55
2019-04-01T21:37:28.679Z,145.32
2019-04-01T21:39:56.563Z,144.45
2019-04-01T21:42:24.578Z,144.15
2019-04-01T21:44:51.629Z,144.85
2019-04-01T21:47:18.957Z,144.40
2019-04-01T21:49:46.309Z,144.50
2019-04-01T21:52:13.349Z,144.30
2019-04-01T21:54:40.530Z,145.40
2019-04-01T21:57:09.804Z,144.60
2019-04-01T21:59:36.878Z,144.72
2019-04-01T22:02:05.582Z,145.55
2019-04-01T22:04:33.990Z,144.77
2019-04-01T22:07:01.272Z,145.17
2019-04-01T22:09:28.691Z,146.35
2019-04-01T22:11:55.816Z,144.68
2019-04-01T22:14:23.005Z,146.90
2019-04-01T22:16:50.113Z,145.60
2019-04-01T22:19:17.599Z,144.82
2019-04-01T22:21:44.640Z,146.10
2019-04-01T22:24:11.807Z,144.72
2019-04-01T22:26:38.896Z,146.35
2019-04-01T22:29:05.936Z,145.02
2019-04-01T22:31:34.088Z,144.77
2019-04-01T22:34:01.170Z,145.95
2019-04-01T22:36:31.328Z,147.68
2019-04-01T22:39:00.839Z,145.65
2019-04-01T22:41:29.282Z,145.57
2019-04-01T22:43:57.865Z,145.70
2019-04-01T22:46:24.990Z,146.40
2019-04-01T22:48:52.060Z,148.60
2019-04-01T22:51:21.174Z,147.50
2019-04-01T22:53:48.321Z,148.35
2019-04-01T22:56:15.407Z,145.82
2019-04-01T22:58:42.474Z,146.53
2019-04-01T23:01:09.625Z,147.43
2019-04-01T23:03:36.814Z,145.75
2019-04-01T23:06:06.071Z,146.90
2019-04-01T23:08:33.172Z,145.25
2019-04-01T23:11:00.773Z,145.43
2019-04-01T23:13:28.031Z,144.97
2019-04-01T23:15:55.095Z,145.92
2019-04-01T23:18:22.193Z,146.30
2019-04-01T23:20:49.721Z,145.95
2019-04-01T23:23:18.614Z,145.40
2019-04-01T23:25:45.968Z,146.13
2019-04-01T23:28:13.369Z,145.62
2019-04-01T23:30:42.227Z,145.70
2019-04-01T23:33:09.796Z,147.15
2019-04-01T23:35:37.176Z,145.47
2019-04-01T23:38:04.237Z,145.65
2019-04-01T23:40:33.226Z,145.75
2019-04-01T23:43:01.642Z,144.97
2019-04-01T23:45:28.675Z,144.97
2019-04-01T23:47:56.833Z,145.38
2019-04-01T23:50:23.863Z,144.37
2019-04-01T23:52:50.906Z,144.33
2019-04-01T23:55:18.377Z,143.10
2019-04-01T23:57:45.413Z,143.72
